Airfield :
LOGIN :

Register | Disclaimer

   EN    FR    IT 

 










Legend :    VFR   Marginal VFR   IFR   Intensive IFR   Very Intensive IFR
Visi :
Ceiling :
>= 8 km
>= 3000ft
5 to 8 km
1000 to 3000 ft
1500m to 5 km
500 to 1000 ft
800 to 1500m
200 to 500 ft
< 800m
< 200 ft
Symbols :   Thunderstorms  Fog  Heavy snow  Heavy precipitations  Wind > 20 kt
SIGMETs :     Misc.  Thunderstorms  Icing  Turbulence  Mountain Waves  Volcanic Ashes







- Airport Elevation : 465 ft
- IATA code : LEJ


EDDP - Leipzig Halle

CURRENT METAR :
  • 231950Z 02005KT 9999 BKN016 07/05 Q1022 TEMPO BKN012

EXPIRED METARs :
  • 231920Z 02006KT 9999 BKN015 07/05 Q1021 TEMPO BKN012
  • 231850Z 02006KT 350V050 9999 BKN014 07/05 Q1021 NOSIG
  • 231820Z 03005KT 9999 BKN016 07/05 Q1020 NOSIG
  • 231750Z 03005KT 9000 BKN016 07/05 Q1020 NOSIG
  • 231720Z 04006KT 9999 OVC015 07/05 Q1020 TEMPO BKN014

TAF TAF EDDP
Valid from the 23 at 18:00 until the 24 at 18:00 UTC


231700Z 2318/2418 36005KT 9999 SCT015 BKN025
TEMPO 2318/2408 BKN012
BECMG 2408/2410 06008KT
No reported NOTAMs for that airfield.



MET'MAP, your aeronautical weather chart ! - Copyright ORBIFLY December 2007 - Disclaimer

ORBIFLY MET'MAP TEAM :

Programming & Development : Alexandra Zaïnal
Concept & Development : Baudouin d'Aumeries
Co-Development & Prog : Marc-Olivier Méhu
Technical & hardware support : Manuel Goepfert

Contact : metmap@orbifly.com




SOURCES & CREDITS :

   NOAA